Flight Number: EUR1057 Duration: 4:30
Departure: Gatwick Airport (EGKK) at 05:30 Distance: 1891 Nm
Arrival: Cairo Int'll Airport (HECA) at 10:00 Equipment: B777

Weather Information
London / Gatwick Airport, United Kingdom (EGKK) 51-09N 000-11W 0M Oct 17, 2018 - 10:50 PM EDT / 2018.10.18 0250 UTC
Wind: from the NNE (030 degrees) at 5 MPH (4 KT):0
Visibility: 4 mile(s):0 Temperature: 51 F (11 C) Dew Point: 50 F (10 C) Relative Humidity: 93% Pressure (altimeter): 30.27 in. Hg (1025 hPa)
ob: EGKK 180250Z 03004KT 7000 NSC 11/10 Q1025 cycle: 3
Sunrise: 06:33 Sunset: 16:57 (UTC)

Cairo Airport, Egypt (HECA) 30-08N 031-24E 74M Oct 17, 2018 - 10:30 PM EDT / 2018.10.18 0230 UTC
Wind: from the NE (050 degrees) at 5 MPH (4 KT):0
Visibility: 1 mile(s):0 Weather: haze Temperature: 71 F (22 C) Dew Point: 62 F (17 C) Relative Humidity: 73% Pressure (altimeter): 29.91 in. Hg (1013 hPa)
ob: HECA 180230Z 05004KT 3000 HZ NSC 22/17 Q1013 NOSIG cycle: 2
Sunrise: 04:01 Sunset: 15:17 (UTC)

TAF:2018/10/17 18:47 TAF HECA 171700Z 1718/1824 35006KT 9999 SCT025 TEMPO1803/1806 VRB03KT 4000 HZ NSC

Previous Pireps for this route
Date Aircraft Flight time Fuel used Landing rate On time
2012-08-29MD-8106.1033000-148Charter
2013-05-16B77704.3381696-125Yes
2013-11-16B7776.121044750No
2014-01-01B757-20004.2429914-215Yes
2014-02-03B757-20004.3631095-322Yes
2014-03-14B7774.441032410No
2014-04-26B757-20005.0834326-140Yes
2014-08-13B757-20004.2429767-130Yes
2014-10-31B7775.15841240Yes
2015-01-22B757-20004.3328958-101Yes
2015-02-20B757-2005.2700No
2015-03-02B757-2005.0643549-800Yes
2015-03-04B757-2004.2642828-688Yes
2015-04-23B73704.4338198-311Charter
2015-06-16B757-2004.2740834-197Yes
2015-08-18B757-20004.3329113-241Yes
2017-06-02B7475.301660000Charter
2017-06-08B74704.23103128-600Charter
(pireps marked green are flown by you)

Route map